Time;durP1;ratioP1;P1;durP2;ratioP2;P2;SDS_P1;SDS_P2;PMS_P1;PMS_P2;Temp;Humidity;BMP_temperature;BMP_pressure;BME280_temperature;BME280_humidity;BME280_pressure;Samples;Min_cycle;Max_cycle;Signal;HPM_P1;HPM_P2
2021/06/03 00:00:57;;;;;;;5.53;3.08;;;;;;;20.38;43.33;100033.28;2221341;40;20025;-80
2021/06/03 00:02:28;;;;;;;8.57;3.63;;;;;;;20.26;43.64;100036.59;2219448;40;20030;-80
2021/06/03 00:03:59;;;;;;;8.30;3.67;;;;;;;20.09;44.46;100036.22;2225786;40;20039;-82
2021/06/03 00:05:36;;;;;;;7.65;3.60;;;;;;;20.03;44.40;100037.03;2225585;40;20048;-83
2021/06/03 00:07:07;;;;;;;6.75;3.40;;;;;;;20.02;44.32;100037.25;2225469;40;20060;-82
2021/06/03 00:08:39;;;;;;;6.50;3.30;;;;;;;20.10;44.29;100037.88;2226025;40;20040;-82
2021/06/03 00:10:12;;;;;;;7.15;3.40;;;;;;;20.15;44.15;100033.69;2223795;40;20064;-82
2021/06/03 00:11:44;;;;;;;8.38;3.50;;;;;;;20.20;44.06;100037.47;2230175;40;20429;-81
2021/06/03 00:13:15;;;;;;;8.60;3.90;;;;;;;20.14;44.11;100045.59;2220467;40;20061;-83
2021/06/03 00:14:46;;;;;;;6.95;3.42;;;;;;;20.13;44.33;100043.91;2223854;40;20068;-82
2021/06/03 00:16:18;;;;;;;5.50;3.30;;;;;;;20.11;44.28;100044.13;2225693;40;20044;-82
2021/06/03 00:17:49;;;;;;;6.82;3.17;;;;;;;20.17;43.93;100047.91;2228085;40;20033;-82
2021/06/03 00:19:20;;;;;;;6.18;3.05;;;;;;;20.25;44.10;100051.25;2224087;40;20063;-83
2021/06/03 00:20:55;;;;;;;5.63;2.97;;;;;;;20.29;43.92;100046.25;2225349;40;20035;-81
2021/06/03 00:22:26;;;;;;;5.78;3.65;;;;;;;20.31;44.26;100049.56;2224144;40;20078;-82
2021/06/03 00:23:58;;;;;;;6.28;3.50;;;;;;;20.24;44.11;100038.72;2225054;40;20495;-83
2021/06/03 00:25:29;;;;;;;6.20;3.33;;;;;;;20.22;44.43;100045.38;2223837;40;20479;-82
2021/06/03 00:27:00;;;;;;;5.78;3.33;;;;;;;20.22;44.35;100040.81;2225011;40;20056;-83
2021/06/03 00:28:32;;;;;;;6.50;3.08;;;;;;;20.18;44.47;100052.28;2226450;39;20043;-82
2021/06/03 00:30:04;;;;;;;6.68;3.55;;;;;;;20.20;44.40;100044.78;2231323;40;20032;-82
2021/06/03 00:31:36;;;;;;;6.78;3.30;;;;;;;20.19;44.48;100052.06;2221742;40;20041;-81
2021/06/03 00:33:07;;;;;;;8.05;3.55;;;;;;;20.18;44.88;100046.84;2222360;40;20061;-82
2021/06/03 00:34:38;;;;;;;9.48;3.70;;;;;;;20.17;45.16;100047.91;2226504;40;20324;-83
2021/06/03 00:36:12;;;;;;;6.03;3.40;;;;;;;20.14;45.40;100042.88;2231120;40;20041;-83
2021/06/03 00:37:44;;;;;;;7.72;2.97;;;;;;;20.12;45.40;100039.56;2219536;40;20049;-83
2021/06/03 00:39:14;;;;;;;8.93;3.38;;;;;;;20.13;45.17;100041.19;2219884;40;20037;-83
2021/06/03 00:40:46;;;;;;;8.90;3.17;;;;;;;20.14;45.26;100045.59;2223173;40;20061;-83
2021/06/03 00:42:17;;;;;;;6.43;3.05;;;;;;;20.15;45.14;100039.97;2226764;40;20037;-83
2021/06/03 00:43:48;;;;;;;5.43;3.25;;;;;;;20.13;45.28;100042.06;2229467;40;20044;-82
2021/06/03 00:45:25;;;;;;;7.53;3.33;;;;;;;20.12;45.13;100045.81;2232952;40;20405;-84
2021/06/03 00:46:56;;;;;;;14.68;3.67;;;;;;;20.12;44.98;100045.81;2202242;40;20048;-83
2021/06/03 00:48:28;;;;;;;6.90;3.13;;;;;;;20.09;45.12;100052.50;2225085;40;20033;-82
2021/06/03 00:49:58;;;;;;;6.00;3.30;;;;;;;20.09;45.29;100051.63;2219668;40;20083;-83
2021/06/03 00:51:31;;;;;;;5.55;3.40;;;;;;;20.03;45.41;100042.44;2222619;40;20118;-83
2021/06/03 00:53:04;;;;;;;6.90;3.40;;;;;;;19.98;45.95;100050.38;2219077;40;20131;-82
2021/06/03 00:54:35;;;;;;;6.57;3.60;;;;;;;19.89;46.23;100052.44;2219187;40;20388;-82
2021/06/03 00:56:07;;;;;;;7.88;3.40;;;;;;;19.77;46.79;100054.09;2215708;40;20055;-82
2021/06/03 00:57:38;;;;;;;8.38;3.40;;;;;;;19.65;47.15;100056.53;2219305;40;20033;-83
2021/06/03 00:59:09;;;;;;;6.07;3.78;;;;;;;19.54;47.26;100059.84;2218416;40;20045;-83
2021/06/03 01:00:41;;;;;;;7.30;3.90;;;;;;;19.35;47.59;100056.88;2219857;40;20041;-83
2021/06/03 01:02:12;;;;;;;8.45;3.63;;;;;;;19.26;47.82;100058.09;2224308;40;20428;-83
2021/06/03 01:03:44;;;;;;;6.97;4.43;;;;;;;19.17;48.13;100055.56;2225525;40;20394;-82
2021/06/03 01:05:20;;;;;;;8.25;4.00;;;;;;;19.13;48.00;100056.13;2198754;40;20050;-83
2021/06/03 01:06:53;;;;;;;9.07;4.30;;;;;;;19.15;47.94;100057.63;2220616;40;20032;-83
2021/06/03 01:08:26;;;;;;;7.25;3.80;;;;;;;19.19;47.94;100058.06;2225521;40;20036;-82
2021/06/03 01:10:10;;;;;;;7.97;3.80;;;;;;;19.23;48.28;100059.31;2222237;40;20405;-81
2021/06/03 01:11:48;;;;;;;6.32;3.80;;;;;;;19.22;48.09;100060.38;2219375;40;20424;-83
2021/06/03 01:13:31;;;;;;;11.32;4.53;;;;;;;19.27;48.21;100063.28;2217730;40;20054;-81
2021/06/03 01:15:06;;;;;;;9.07;3.80;;;;;;;19.27;48.39;100060.59;2220776;40;20057;-82
2021/06/03 01:16:38;;;;;;;7.35;3.80;;;;;;;19.26;48.29;100068.94;2195536;40;20150;-81
2021/06/03 01:18:10;;;;;;;6.85;3.90;;;;;;;19.27;48.25;100070.59;2218590;40;20029;-82
2021/06/03 01:19:43;;;;;;;7.28;3.97;;;;;;;19.29;48.28;100066.66;2171133;40;20113;-83
2021/06/03 01:21:18;;;;;;;8.43;3.70;;;;;;;19.29;48.32;100063.94;2212464;40;20043;-83
2021/06/03 01:23:02;;;;;;;5.38;3.47;;;;;;;19.31;48.31;100071.84;2213017;40;20044;-83
2021/06/03 01:24:36;;;;;;;8.13;3.40;;;;;;;19.32;48.32;100062.69;2227985;40;20048;-82
2021/06/03 01:26:08;;;;;;;7.95;3.38;;;;;;;19.32;48.64;100063.50;2193267;40;20355;-82
2021/06/03 01:27:40;;;;;;;6.90;3.80;;;;;;;19.28;48.46;100066.81;2203287;40;20151;-82
2021/06/03 01:29:13;;;;;;;7.20;3.45;;;;;;;19.22;48.49;100067.63;2226131;40;20048;-83
2021/06/03 01:30:47;;;;;;;7.18;4.75;;;;;;;19.21;49.03;100071.38;2229755;40;20033;-82
2021/06/03 01:32:19;;;;;;;9.05;4.25;;;;;;;19.17;48.77;100069.09;2230446;40;20041;-81
2021/06/03 01:33:50;;;;;;;8.45;4.05;;;;;;;19.13;49.08;100070.53;2215524;40;20088;-82
2021/06/03 01:35:25;;;;;;;7.03;3.30;;;;;;;19.13;49.22;100075.94;2210605;40;20042;-83
2021/06/03 01:36:56;;;;;;;5.85;3.00;;;;;;;19.16;48.79;100078.25;2222196;40;20033;-83
2021/06/03 01:38:30;;;;;;;8.38;4.63;;;;;;;19.17;49.01;100079.09;2214262;40;20699;-84
2021/06/03 01:40:04;;;;;;;9.65;4.07;;;;;;;19.05;49.24;100080.69;2208184;40;20034;-83
2021/06/03 01:41:36;;;;;;;5.97;3.85;;;;;;;18.99;49.46;100085.88;2195068;40;20400;-82
2021/06/03 01:43:08;;;;;;;5.93;3.28;;;;;;;19.04;49.18;100087.13;2171896;40;20042;-83
2021/06/03 01:44:40;;;;;;;5.68;3.67;;;;;;;19.05;48.97;100084.22;2203292;40;20056;-83
2021/06/03 01:46:12;;;;;;;6.95;3.75;;;;;;;19.02;49.15;100085.47;2212818;40;20041;-83
2021/06/03 01:47:44;;;;;;;6.38;3.50;;;;;;;19.01;49.30;100080.25;2224936;40;20040;-83
2021/06/03 01:49:16;;;;;;;6.75;3.75;;;;;;;18.96;49.28;100082.72;2220078;40;20103;-82
2021/06/03 01:50:50;;;;;;;6.55;4.53;;;;;;;18.93;49.48;100085.81;2216796;40;20033;-82
2021/06/03 01:52:22;;;;;;;6.28;3.58;;;;;;;18.91;49.72;100087.84;2217942;40;20041;-80
2021/06/03 01:53:54;;;;;;;6.25;3.10;;;;;;;18.85;49.99;100084.91;2223115;40;20037;-81
2021/06/03 01:55:28;;;;;;;6.55;3.60;;;;;;;18.88;49.89;100082.84;2219287;40;20402;-82
2021/06/03 01:57:01;;;;;;;5.45;3.35;;;;;;;18.85;49.87;100093.03;2216989;40;20314;-82
2021/06/03 01:58:33;;;;;;;7.85;4.18;;;;;;;18.82;50.07;100090.72;2218618;40;20071;-82
2021/06/03 02:00:07;;;;;;;8.00;3.75;;;;;;;18.80;50.11;100097.38;2223254;40;20384;-82
2021/06/03 02:01:39;;;;;;;7.45;4.00;;;;;;;18.76;50.05;100090.66;2222013;40;20064;-80
2021/06/03 02:03:09;;;;;;;5.82;3.55;;;;;;;18.68;50.49;100088.97;2223715;40;20183;-81
2021/06/03 02:04:41;;;;;;;4.90;2.83;;;;;;;18.55;50.36;100084.28;2220713;40;20033;-83
2021/06/03 02:06:12;;;;;;;5.88;3.20;;;;;;;18.48;50.62;100097.78;2223685;40;20057;-81
2021/06/03 02:07:43;;;;;;;8.45;3.47;;;;;;;18.40;50.75;100103.31;2222387;40;20085;-83
2021/06/03 02:09:15;;;;;;;7.15;3.05;;;;;;;18.31;51.02;100101.78;2223501;40;20044;-82
2021/06/03 02:10:48;;;;;;;6.15;3.30;;;;;;;18.16;51.66;100107.25;2227336;40;20044;-81
2021/06/03 02:12:21;;;;;;;8.32;3.70;;;;;;;18.03;51.70;100105.25;2224879;40;20426;-82
2021/06/03 02:13:57;;;;;;;6.45;3.50;;;;;;;17.94;52.00;100101.81;2217398;40;20053;-83
2021/06/03 02:15:33;;;;;;;5.63;3.65;;;;;;;17.91;52.42;100111.13;2217361;40;20042;-82
2021/06/03 02:17:10;;;;;;;7.50;3.70;;;;;;;17.82;52.71;100104.19;2221612;39;20048;-82
2021/06/03 02:18:48;;;;;;;6.07;3.17;;;;;;;17.75;52.93;100103.28;2223895;40;20138;-81
2021/06/03 02:20:27;;;;;;;5.70;3.40;;;;;;;17.67;53.35;100100.66;2186305;40;20167;-82
2021/06/03 02:22:00;;;;;;;8.63;3.80;;;;;;;17.67;53.62;100106.06;2199217;40;20592;-82
2021/06/03 02:23:32;;;;;;;7.72;3.55;;;;;;;17.65;54.08;100110.84;2198010;40;20039;-83
2021/06/03 02:25:05;;;;;;;7.72;3.20;;;;;;;17.67;53.93;100106.91;2207870;40;20030;-81
2021/06/03 02:26:41;;;;;;;5.82;3.35;;;;;;;17.71;53.77;100110.06;2217775;40;20037;-82
2021/06/03 02:28:14;;;;;;;7.85;3.28;;;;;;;17.74;53.76;100105.13;2214975;40;20056;-81
2021/06/03 02:29:47;;;;;;;7.32;3.15;;;;;;;17.83;53.55;100105.00;2217551;40;20034;-82
2021/06/03 02:31:19;;;;;;;5.63;2.55;;;;;;;17.90;53.37;100105.94;2216546;40;20052;-83
2021/06/03 02:32:51;;;;;;;5.75;3.03;;;;;;;18.01;53.39;100104.63;2224547;40;20060;-83
2021/06/03 02:34:24;;;;;;;6.35;3.03;;;;;;;18.06;53.41;100107.56;2222303;40;20049;-81
2021/06/03 02:35:56;;;;;;;6.10;3.50;;;;;;;18.10;53.26;100108.88;2223171;40;20341;-83
2021/06/03 02:37:27;;;;;;;5.75;3.78;;;;;;;18.15;52.91;100111.00;2221924;40;20055;-83
2021/06/03 02:39:00;;;;;;;7.07;3.80;;;;;;;18.16;53.08;100108.09;2223013;40;20099;-83
2021/06/03 02:40:31;;;;;;;6.10;3.60;;;;;;;18.18;53.06;100110.63;2221546;40;20049;-81
2021/06/03 02:42:05;;;;;;;6.50;3.22;;;;;;;18.19;52.83;100105.00;2229146;40;20032;-82
2021/06/03 02:43:41;;;;;;;6.72;3.05;;;;;;;18.23;52.92;100119.81;2228567;40;20405;-82
2021/06/03 02:45:15;;;;;;;6.07;3.42;;;;;;;18.23;52.80;100111.69;2231473;40;20032;-81
2021/06/03 02:46:47;;;;;;;6.50;3.33;;;;;;;18.18;53.10;100116.84;2225766;40;20115;-82
2021/06/03 02:48:18;;;;;;;5.20;2.85;;;;;;;18.17;53.06;100119.75;2224735;40;20118;-82
2021/06/03 02:49:49;;;;;;;7.32;3.63;;;;;;;18.19;52.89;100113.13;2218606;40;20060;-81
2021/06/03 02:51:21;;;;;;;6.68;3.80;;;;;;;18.16;52.99;100120.78;2222233;40;20037;-81
2021/06/03 02:52:53;;;;;;;7.35;3.22;;;;;;;18.06;53.30;100126.50;2227427;40;20056;-81
2021/06/03 02:54:24;;;;;;;5.50;3.15;;;;;;;17.97;53.47;100123.09;2230593;40;20036;-80
2021/06/03 02:55:55;;;;;;;6.30;4.00;;;;;;;17.87;54.17;100126.06;2228848;40;20281;-81
2021/06/03 02:57:28;;;;;;;7.88;3.63;;;;;;;17.79;54.58;100126.19;2229846;40;20032;-83
2021/06/03 02:58:59;;;;;;;5.80;3.38;;;;;;;17.73;54.50;100124.25;2228730;40;20064;-82
2021/06/03 03:00:32;;;;;;;5.55;3.55;;;;;;;17.71;54.58;100129.81;2224523;40;20104;-82
2021/06/03 03:02:04;;;;;;;9.38;3.95;;;;;;;17.68;54.92;100132.06;2223132;40;20056;-81
2021/06/03 03:03:35;;;;;;;5.20;2.85;;;;;;;17.61;54.93;100126.59;2226924;40;20036;-80
2021/06/03 03:05:08;;;;;;;5.57;2.95;;;;;;;17.56;54.92;100129.03;2222884;40;20150;-80
2021/06/03 03:06:40;;;;;;;6.07;3.60;;;;;;;17.46;55.37;100145.53;2224359;40;20044;-81
2021/06/03 03:08:12;;;;;;;9.52;4.60;;;;;;;17.38;55.97;100137.53;2228406;40;20375;-81
2021/06/03 03:09:44;;;;;;;5.75;3.20;;;;;;;17.35;55.94;100140.59;2230296;40;20082;-81
2021/06/03 03:11:16;;;;;;;5.97;2.70;;;;;;;17.38;55.79;100138.38;2226452;40;20202;-81
2021/06/03 03:12:49;;;;;;;6.78;3.55;;;;;;;17.45;55.67;100141.97;2229185;40;20103;-81
2021/06/03 03:14:20;;;;;;;7.63;3.67;;;;;;;17.47;55.70;100139.13;2230022;40;20053;-82
2021/06/03 03:15:52;;;;;;;7.88;3.35;;;;;;;17.48;55.97;100146.16;2229467;39;20033;-82
2021/06/03 03:17:23;;;;;;;8.75;3.63;;;;;;;17.49;55.96;100142.44;2222916;40;20082;-82
2021/06/03 03:18:54;;;;;;;9.82;3.83;;;;;;;17.46;56.08;100142.84;2217995;40;20034;-81
2021/06/03 03:20:27;;;;;;;7.10;3.63;;;;;;;17.43;55.94;100143.19;2221357;40;20040;-82
2021/06/03 03:21:59;;;;;;;7.72;3.63;;;;;;;17.43;56.17;100151.31;2219759;40;20133;-81
2021/06/03 03:23:30;;;;;;;6.10;3.72;;;;;;;17.40;56.24;100146.28;2226278;40;20036;-81
2021/06/03 03:25:02;;;;;;;5.78;3.35;;;;;;;17.41;56.12;100147.94;2229750;40;20040;-82
2021/06/03 03:26:33;;;;;;;8.85;3.42;;;;;;;17.39;56.06;100145.44;2225623;40;20094;-81
2021/06/03 03:28:07;;;;;;;4.93;3.03;;;;;;;17.44;56.34;100153.00;2223780;39;22659;-81
2021/06/03 03:29:38;;;;;;;6.65;3.78;;;;;;;17.47;56.21;100155.31;2226300;40;20052;-82
2021/06/03 03:31:09;;;;;;;7.88;3.53;;;;;;;17.53;56.12;100149.16;2210084;40;20038;-82
2021/06/03 03:32:40;;;;;;;7.13;3.50;;;;;;;17.57;56.02;100158.56;2217822;40;20053;-82
2021/06/03 03:34:12;;;;;;;7.57;4.40;;;;;;;17.55;56.23;100155.22;2190774;40;20741;-81
2021/06/03 03:35:45;;;;;;;6.10;3.78;;;;;;;17.58;56.11;100154.81;2219222;40;20026;-82
2021/06/03 03:37:17;;;;;;;6.20;3.63;;;;;;;17.67;55.63;100157.41;2175895;40;20036;-82
2021/06/03 03:38:48;;;;;;;4.80;3.17;;;;;;;17.71;55.71;100156.84;2219220;40;20091;-82
2021/06/03 03:40:22;;;;;;;5.45;2.65;;;;;;;17.77;55.61;100158.81;2225871;40;20037;-82
2021/06/03 03:41:54;;;;;;;7.25;4.18;;;;;;;17.85;55.53;100148.91;2225182;40;20041;-80
2021/06/03 03:43:35;;;;;;;6.53;3.28;;;;;;;17.81;55.58;100161.13;2207090;39;20088;-81
2021/06/03 03:45:12;;;;;;;4.45;2.83;;;;;;;17.85;55.41;100163.28;2220720;40;20037;-80
2021/06/03 03:47:14;;;;;;;7.00;3.38;;;;;;;17.82;55.48;100155.56;2196172;40;20201;-84
2021/06/03 03:48:58;;;;;;;6.93;3.50;;;;;;;17.81;55.66;100155.72;2198165;40;20053;-83
2021/06/03 03:50:38;;;;;;;4.70;3.05;;;;;;;17.71;55.77;100162.25;2203815;40;20058;-82
2021/06/03 03:54:34;;;;;;;4.80;3.50;;;;;;;17.71;56.13;100166.84;2199820;40;20042;-82
2021/06/03 03:56:08;;;;;;;5.13;3.28;;;;;;;17.71;56.01;100172.25;2195494;40;20081;-82
2021/06/03 03:57:39;;;;;;;9.95;3.90;;;;;;;17.71;56.33;100170.38;2217601;40;20512;-81
2021/06/03 03:59:12;;;;;;;8.32;4.20;;;;;;;17.73;55.99;100162.09;2214293;40;20624;-81
2021/06/03 04:00:44;;;;;;;5.65;2.88;;;;;;;17.79;55.97;100166.72;2223367;40;20503;-81
2021/06/03 04:02:15;;;;;;;7.15;2.90;;;;;;;17.84;55.71;100174.28;2222991;40;20048;-81
2021/06/03 04:03:46;;;;;;;7.10;3.50;;;;;;;17.86;55.58;100173.06;2221753;40;20028;-82
2021/06/03 04:05:18;;;;;;;5.65;3.42;;;;;;;17.92;55.62;100171.47;2209840;40;20053;-81
2021/06/03 04:06:50;;;;;;;4.85;3.10;;;;;;;17.96;55.46;100169.22;2212579;40;20038;-82
2021/06/03 04:08:21;;;;;;;7.75;3.25;;;;;;;17.99;55.72;100168.88;2228648;40;20040;-82
2021/06/03 04:09:52;;;;;;;7.32;3.63;;;;;;;18.03;55.70;100178.28;2225117;40;20063;-82
2021/06/03 04:11:25;;;;;;;8.07;3.58;;;;;;;18.01;55.61;100170.34;2223998;40;20037;-80
2021/06/03 04:12:56;;;;;;;7.32;3.28;;;;;;;18.00;55.55;100170.56;2222128;39;20448;-81
2021/06/03 04:14:28;;;;;;;5.63;3.10;;;;;;;17.99;55.64;100172.44;2223595;40;20041;-81
2021/06/03 04:16:00;;;;;;;5.32;2.95;;;;;;;17.98;55.51;100164.50;2218973;40;20033;-82
2021/06/03 04:17:31;;;;;;;7.47;3.83;;;;;;;17.97;55.74;100162.81;2224432;40;20389;-82
2021/06/03 04:19:03;;;;;;;6.60;3.13;;;;;;;17.93;55.51;100162.31;2219060;40;20034;-84
2021/06/03 04:20:34;;;;;;;5.03;3.03;;;;;;;17.89;55.52;100163.75;2218224;40;20056;-82
2021/06/03 04:22:05;;;;;;;6.20;2.75;;;;;;;17.85;55.84;100163.28;2219150;40;20208;-82
2021/06/03 04:23:37;;;;;;;5.00;2.75;;;;;;;17.83;56.03;100168.03;2223314;40;20049;-80
2021/06/03 04:25:09;;;;;;;5.25;3.13;;;;;;;17.86;56.07;100177.63;2222569;40;20048;-80
2021/06/03 04:26:40;;;;;;;6.13;3.90;;;;;;;17.87;56.02;100174.72;2229326;40;20039;-81
2021/06/03 04:28:12;;;;;;;7.20;3.30;;;;;;;17.88;56.15;100165.59;2226757;39;20052;-80
2021/06/03 04:29:45;;;;;;;7.80;3.50;;;;;;;17.89;56.14;100169.97;2229601;40;20037;-81
2021/06/03 04:31:16;;;;;;;5.90;3.30;;;;;;;17.86;56.57;100177.63;2226855;39;20044;-81
2021/06/03 04:32:49;;;;;;;7.68;4.00;;;;;;;17.85;56.85;100171.41;2224251;40;20101;-80
2021/06/03 04:34:26;;;;;;;7.45;3.90;;;;;;;17.86;56.69;100178.47;2221950;40;20257;-80
2021/06/03 04:35:58;;;;;;;5.00;3.15;;;;;;;17.92;56.68;100172.31;2227456;40;20069;-80
2021/06/03 04:37:30;;;;;;;6.80;3.45;;;;;;;18.01;56.44;100169.53;2223184;39;20053;-80
2021/06/03 04:39:01;;;;;;;6.32;3.25;;;;;;;18.11;56.20;100174.59;2222831;40;20021;-80
2021/06/03 04:40:34;;;;;;;5.25;3.08;;;;;;;18.16;56.07;100178.41;2224449;39;20387;-82
2021/06/03 04:42:06;;;;;;;8.32;3.83;;;;;;;18.21;56.37;100181.41;2227173;40;20025;-81
2021/06/03 04:43:37;;;;;;;7.13;3.47;;;;;;;18.25;55.95;100184.56;2222070;40;20406;-81
2021/06/03 04:45:12;;;;;;;5.40;3.38;;;;;;;18.30;55.93;100186.69;2229982;40;20032;-82
2021/06/03 04:46:44;;;;;;;5.97;3.15;;;;;;;18.34;55.64;100196.09;2219333;40;20084;-82
2021/06/03 04:48:15;;;;;;;5.38;3.15;;;;;;;18.36;55.64;100191.31;2223031;40;20036;-82
2021/06/03 04:49:46;;;;;;;6.97;4.38;;;;;;;18.37;55.90;100191.13;2222632;40;20633;-82
2021/06/03 04:51:18;;;;;;;7.97;3.88;;;;;;;18.36;55.86;100194.88;2231630;40;20152;-81
2021/06/03 04:52:50;;;;;;;8.15;3.50;;;;;;;18.32;56.15;100193.59;2221535;40;20053;-81
2021/06/03 04:54:24;;;;;;;7.75;3.65;;;;;;;18.27;56.27;100201.44;2224848;40;20029;-82
2021/06/03 04:56:02;;;;;;;6.32;3.63;;;;;;;18.38;55.69;100202.81;2192732;40;20565;-82
2021/06/03 04:57:42;;;;;;;11.02;3.85;;;;;;;18.42;55.66;100195.97;2212817;40;20045;-81
2021/06/03 04:59:31;;;;;;;5.97;3.50;;;;;;;18.45;55.30;100202.88;2201747;40;20055;-82
2021/06/03 05:01:08;;;;;;;5.90;3.80;;;;;;;18.44;55.43;100202.03;2201734;40;20033;-81
2021/06/03 05:02:40;;;;;;;6.10;3.70;;;;;;;18.48;55.70;100208.75;2228309;40;20476;-82
2021/06/03 05:04:11;;;;;;;6.22;3.60;;;;;;;18.52;55.58;100211.91;2203112;40;21884;-82
2021/06/03 05:05:42;;;;;;;6.50;3.58;;;;;;;18.59;55.57;100209.25;2209160;40;20041;-81
2021/06/03 05:07:31;;;;;;;7.03;3.72;;;;;;;18.62;55.18;100206.16;2202853;40;20093;-82
2021/06/03 05:09:08;;;;;;;7.88;4.15;;;;;;;18.55;55.14;100200.69;2215375;40;20656;-84
2021/06/03 05:10:46;;;;;;;6.47;3.85;;;;;;;18.53;55.27;100216.28;2218379;40;20533;-83
2021/06/03 05:12:17;;;;;;;8.68;4.00;;;;;;;18.54;55.28;100213.38;2223642;40;20401;-81
2021/06/03 05:13:48;;;;;;;6.53;3.40;;;;;;;18.60;55.27;100210.94;2221135;40;20053;-82
2021/06/03 05:15:23;;;;;;;5.18;3.10;;;;;;;18.69;54.91;100210.59;2225053;40;20356;-83
2021/06/03 05:16:58;;;;;;;5.57;3.85;;;;;;;18.70;55.02;100206.03;2193352;40;20067;-81
2021/06/03 05:18:29;;;;;;;7.43;4.00;;;;;;;18.64;55.00;100212.22;2218635;40;20033;-81
2021/06/03 05:20:00;;;;;;;6.13;3.70;;;;;;;18.63;54.83;100216.81;2181615;40;20054;-81
2021/06/03 05:21:32;;;;;;;6.40;3.58;;;;;;;18.64;55.26;100212.22;2221757;40;20521;-83
2021/06/03 05:23:03;;;;;;;8.52;4.20;;;;;;;18.68;55.07;100214.34;2221074;40;20051;-81
2021/06/03 05:24:35;;;;;;;8.50;3.78;;;;;;;18.70;54.96;100212.28;2222462;40;20029;-81
2021/06/03 05:26:06;;;;;;;6.50;3.92;;;;;;;18.78;54.70;100214.03;2219660;40;20057;-83
2021/06/03 05:27:37;;;;;;;7.63;3.30;;;;;;;18.87;54.50;100206.59;2218887;40;20743;-81
2021/06/03 05:29:14;;;;;;;8.23;3.58;;;;;;;18.91;54.23;100212.44;2225915;40;20084;-82
2021/06/03 05:30:45;;;;;;;5.57;3.42;;;;;;;18.99;54.23;100209.63;2230048;40;20470;-81
2021/06/03 05:32:18;;;;;;;6.60;3.20;;;;;;;18.98;53.93;100210.69;2224668;40;20490;-85
2021/06/03 05:33:50;;;;;;;5.65;2.97;;;;;;;18.93;53.90;100221.25;2216041;40;20065;-84
2021/06/03 05:35:26;;;;;;;5.43;2.85;;;;;;;18.95;53.70;100213.78;2191044;40;20658;-84
2021/06/03 05:37:15;;;;;;;6.28;3.17;;;;;;;18.98;53.61;100218.81;2200822;40;20071;-84
2021/06/03 05:38:59;;;;;;;4.75;2.75;;;;;;;19.01;53.58;100224.66;2180187;40;20180;-84
2021/06/03 05:40:32;;;;;;;5.60;2.85;;;;;;;19.04;53.66;100228.84;2190760;40;20228;-83
2021/06/03 05:42:04;;;;;;;5.30;2.95;;;;;;;19.06;53.49;100226.78;2199942;40;20489;-83
2021/06/03 05:43:35;;;;;;;4.88;2.80;;;;;;;19.07;53.83;100233.03;2187311;40;20046;-83
2021/06/03 05:45:08;;;;;;;6.07;3.40;;;;;;;19.04;53.80;100236.97;2206052;40;20042;-83
2021/06/03 05:46:41;;;;;;;6.85;3.22;;;;;;;19.02;53.97;100236.31;2205109;40;20057;-83
2021/06/03 05:48:14;;;;;;;7.03;3.13;;;;;;;18.99;54.36;100242.13;2213788;40;20426;-82
2021/06/03 05:49:46;;;;;;;5.60;2.95;;;;;;;18.98;54.31;100248.59;2211517;40;20043;-82
2021/06/03 05:51:19;;;;;;;7.05;3.53;;;;;;;18.98;54.34;100241.31;2210955;40;20032;-82
2021/06/03 05:52:51;;;;;;;6.88;3.88;;;;;;;19.03;54.37;100248.84;2212808;40;20049;-82
2021/06/03 05:54:23;;;;;;;6.95;3.40;;;;;;;19.09;54.16;100248.03;2216225;40;20283;-81
2021/06/03 05:55:54;;;;;;;6.68;4.05;;;;;;;19.13;54.16;100256.63;2210848;40;20042;-82
2021/06/03 05:57:25;;;;;;;8.88;3.38;;;;;;;19.12;54.25;100258.50;2218845;40;20036;-81
2021/06/03 05:58:57;;;;;;;5.95;3.55;;;;;;;19.17;54.06;100250.63;2214404;40;20044;-82
2021/06/03 06:00:30;;;;;;;7.10;3.72;;;;;;;19.27;53.96;100250.28;2218111;40;20042;-82
2021/06/03 06:02:07;;;;;;;4.97;3.10;;;;;;;19.27;54.19;100247.56;2202348;40;20350;-82
2021/06/03 06:03:57;;;;;;;6.43;4.00;;;;;;;19.35;53.81;100246.59;2215260;40;20023;-82
2021/06/03 06:07:19;;;;;;;7.88;3.85;;;;;;;19.38;53.90;100264.31;2215464;39;20625;-81
2021/06/03 06:08:52;;;;;;;8.13;4.35;;;;;;;19.38;53.92;100262.44;2218005;40;20025;-82
2021/06/03 06:10:22;;;;;;;8.70;3.83;;;;;;;19.38;54.14;100267.84;2207183;40;20034;-82
2021/06/03 06:11:54;;;;;;;7.10;4.07;;;;;;;19.46;53.88;100267.72;2210965;40;20037;-82
2021/06/03 06:13:26;;;;;;;7.53;4.25;;;;;;;19.54;53.84;100264.00;2178699;40;20050;-82
2021/06/03 06:14:57;;;;;;;8.40;4.28;;;;;;;19.59;53.82;100268.84;2209675;40;20034;-82
2021/06/03 06:16:32;;;;;;;6.95;3.95;;;;;;;19.62;53.82;100268.44;2203149;40;20108;-83
2021/06/03 06:18:18;;;;;;;7.40;4.28;;;;;;;19.68;54.13;100262.22;2212993;40;20033;-82
2021/06/03 06:19:51;;;;;;;6.25;4.18;;;;;;;19.72;53.83;100274.34;2213583;40;20041;-84
2021/06/03 06:21:27;;;;;;;9.30;4.18;;;;;;;19.77;53.95;100266.44;2218790;40;20096;-83
2021/06/03 06:23:02;;;;;;;9.13;5.00;;;;;;;19.73;53.97;100267.03;2211114;40;20073;-83
2021/06/03 06:24:36;;;;;;;8.15;4.80;;;;;;;19.70;54.23;100268.28;2211354;40;20362;-82
2021/06/03 06:26:09;;;;;;;6.82;4.15;;;;;;;19.76;54.23;100266.66;2201633;40;20684;-80
2021/06/03 06:27:41;;;;;;;5.82;3.97;;;;;;;19.83;54.32;100270.22;2207242;40;20043;-81
2021/06/03 06:29:13;;;;;;;6.18;3.63;;;;;;;19.95;53.99;100270.53;2197113;40;20038;-81
2021/06/03 06:30:48;;;;;;;5.30;3.30;;;;;;;20.04;53.84;100268.50;2204962;40;20042;-81
2021/06/03 06:32:28;;;;;;;6.90;3.28;;;;;;;20.15;53.54;100270.63;2195780;40;20120;-80
2021/06/03 06:34:00;;;;;;;8.68;3.83;;;;;;;20.21;53.42;100277.13;2192736;40;20080;-83
2021/06/03 06:35:35;;;;;;;7.30;4.25;;;;;;;20.21;53.45;100274.41;2211619;40;20083;-84
2021/06/03 06:37:08;;;;;;;7.15;3.90;;;;;;;20.18;53.56;100277.53;2202782;40;20830;-82
2021/06/03 06:38:41;;;;;;;6.65;4.07;;;;;;;20.16;53.82;100269.59;2211606;40;20030;-82
2021/06/03 06:40:14;;;;;;;5.78;3.92;;;;;;;20.21;53.87;100277.13;2200218;40;20046;-82
2021/06/03 06:41:46;;;;;;;8.25;4.50;;;;;;;20.21;54.06;100272.53;2211058;40;20018;-83
2021/06/03 06:43:18;;;;;;;7.20;3.90;;;;;;;20.25;54.04;100278.38;2209199;40;20464;-84
2021/06/03 06:44:51;;;;;;;11.77;4.13;;;;;;;20.30;53.91;100280.50;2211867;40;20077;-84
2021/06/03 06:46:24;;;;;;;7.97;4.38;;;;;;;20.32;53.96;100276.53;2206940;40;20046;-85
2021/06/03 06:47:56;;;;;;;8.38;3.90;;;;;;;20.35;53.76;100283.44;2205415;40;20029;-84
2021/06/03 06:49:30;;;;;;;9.20;3.88;;;;;;;20.46;53.64;100290.16;2202715;40;20770;-86
2021/06/03 06:51:04;;;;;;;10.82;5.65;;;;;;;20.57;53.24;100295.00;2207827;40;20026;-81
2021/06/03 06:52:35;;;;;;;7.25;4.28;;;;;;;20.71;52.94;100280.41;2206644;40;20042;-84
2021/06/03 06:54:07;;;;;;;8.15;4.20;;;;;;;20.81;52.48;100287.34;2206458;40;20035;-83
2021/06/03 06:55:40;;;;;;;10.63;4.35;;;;;;;20.90;52.26;100279.84;2195468;40;20057;-83
2021/06/03 06:57:11;;;;;;;6.85;4.22;;;;;;;20.98;52.04;100280.47;2204607;40;20038;-83
2021/06/03 06:58:43;;;;;;;8.50;4.00;;;;;;;21.09;51.88;100278.16;2201651;40;20070;-82
2021/06/03 07:00:15;;;;;;;6.25;3.33;;;;;;;21.25;51.29;100283.22;2207293;40;20084;-81
2021/06/03 07:01:46;;;;;;;6.07;3.63;;;;;;;21.38;50.62;100271.47;2202958;40;20437;-81
2021/06/03 07:03:18;;;;;;;4.90;3.40;;;;;;;21.46;50.51;100284.84;2206849;40;20331;-81
2021/06/03 07:04:50;;;;;;;7.63;3.67;;;;;;;21.57;50.43;100286.09;2202196;40;20050;-81
2021/06/03 07:06:23;;;;;;;8.82;3.38;;;;;;;21.72;49.76;100272.28;2208428;40;20050;-81
2021/06/03 07:07:55;;;;;;;8.02;3.90;;;;;;;21.78;49.95;100273.31;2206731;40;20046;-82
2021/06/03 07:09:26;;;;;;;6.15;3.53;;;;;;;21.79;49.77;100286.69;2208214;40;20026;-82
2021/06/03 07:10:57;;;;;;;6.70;3.33;;;;;;;21.89;49.74;100278.09;2205826;40;20081;-81
2021/06/03 07:12:29;;;;;;;8.98;3.88;;;;;;;21.97;49.35;100268.84;2208233;40;20042;-82
2021/06/03 07:14:01;;;;;;;6.72;3.28;;;;;;;22.03;49.53;100278.03;2207064;40;20054;-85
2021/06/03 07:15:32;;;;;;;9.13;3.20;;;;;;;22.07;49.34;100265.69;2212098;40;20074;-83
2021/06/03 07:17:10;;;;;;;5.75;3.05;;;;;;;22.21;48.99;100264.56;2203535;40;20045;-82